createdAt,value
2017-07-05T00:01:50.463Z,101320.36
2017-07-05T00:04:17.857Z,101315.20
2017-07-05T00:06:45.259Z,101312.77
2017-07-05T00:09:12.639Z,101305.68
2017-07-05T00:11:40.347Z,101302.93
2017-07-05T00:14:07.737Z,101304.70
2017-07-05T00:16:35.135Z,101301.89
2017-07-05T00:19:02.518Z,101291.29
2017-07-05T00:21:29.938Z,101296.91
2017-07-05T00:23:57.328Z,101295.29
2017-07-05T00:26:24.720Z,101295.88
2017-07-05T00:28:52.115Z,101292.50
2017-07-05T00:31:19.511Z,101298.70
2017-07-05T00:33:46.910Z,101289.64
2017-07-05T00:36:14.304Z,101283.64
2017-07-05T00:38:41.960Z,101277.69
2017-07-05T00:41:09.352Z,101281.67
2017-07-05T00:43:36.976Z,101281.81
2017-07-05T00:46:04.367Z,101284.56
2017-07-05T00:48:31.771Z,101287.48
2017-07-05T00:50:59.165Z,101283.74
2017-07-05T00:53:26.563Z,101277.58
2017-07-05T00:55:53.953Z,101269.58
2017-07-05T00:58:21.355Z,101277.56
2017-07-05T01:00:48.751Z,101274.06
2017-07-05T01:03:16.146Z,101264.66
2017-07-05T01:05:43.544Z,101267.54
2017-07-05T01:08:10.935Z,101265.86
2017-07-05T01:10:38.323Z,101264.95
2017-07-05T01:13:05.724Z,101263.20
2017-07-05T01:15:33.113Z,101260.42
2017-07-05T01:18:00.512Z,101264.53
2017-07-05T01:20:27.909Z,101265.85
2017-07-05T01:22:55.302Z,101257.30
2017-07-05T01:25:22.695Z,101266.21
2017-07-05T01:27:50.104Z,101266.70
2017-07-05T01:30:17.483Z,101275.44
2017-07-05T01:32:44.883Z,101277.54
2017-07-05T01:35:12.283Z,101275.32
2017-07-05T01:37:39.672Z,101273.34
2017-07-05T01:40:07.067Z,101283.16
2017-07-05T01:42:34.451Z,101282.59
2017-07-05T01:45:01.896Z,101284.97
2017-07-05T01:47:29.245Z,101280.41
2017-07-05T01:49:56.650Z,101283.14
2017-07-05T01:52:24.043Z,101294.49
2017-07-05T01:54:51.444Z,101290.78
2017-07-05T01:57:18.832Z,101293.71
2017-07-05T01:59:46.232Z,101291.58
2017-07-05T02:02:13.622Z,101294.25
2017-07-05T02:04:41.020Z,101291.92
2017-07-05T02:07:08.413Z,101295.92
2017-07-05T02:09:35.803Z,101294.36
2017-07-05T02:12:03.198Z,101291.00
2017-07-05T02:14:30.595Z,101292.20
2017-07-05T02:16:57.984Z,101282.82
2017-07-05T02:19:25.381Z,101283.69
2017-07-05T02:21:52.768Z,101280.58
2017-07-05T02:24:20.162Z,101286.48
2017-07-05T02:26:47.556Z,101282.72
2017-07-05T02:29:14.955Z,101277.41
2017-07-05T02:31:42.350Z,101283.94
2017-07-05T02:34:09.748Z,101288.26
2017-07-05T02:36:37.143Z,101292.16
2017-07-05T02:39:04.543Z,101292.25
2017-07-05T02:41:31.940Z,101300.09
2017-07-05T02:43:59.593Z,101299.20
2017-07-05T02:46:27.084Z,101293.34
2017-07-05T02:48:54.479Z,101295.32
2017-07-05T02:51:21.869Z,101306.66
2017-07-05T02:53:49.263Z,101302.03
2017-07-05T02:56:16.668Z,101302.61
2017-07-05T02:58:44.069Z,101298.31
2017-07-05T03:01:11.463Z,101291.08
2017-07-05T03:03:38.860Z,101296.22
2017-07-05T03:06:06.499Z,101284.81
2017-07-05T03:08:33.893Z,101280.19
2017-07-05T03:11:01.287Z,101281.88
2017-07-05T03:13:28.675Z,101280.57
2017-07-05T03:15:56.086Z,101284.66
2017-07-05T03:18:23.779Z,101280.27
2017-07-05T03:20:51.188Z,101280.52
2017-07-05T03:23:18.574Z,101281.19
2017-07-05T03:25:45.972Z,101286.17
2017-07-05T03:28:13.369Z,101289.69
2017-07-05T03:30:40.763Z,101282.50
2017-07-05T03:33:08.156Z,101287.81
2017-07-05T03:35:35.563Z,101283.58
2017-07-05T03:38:02.953Z,101279.68
2017-07-05T03:40:30.352Z,101272.16
2017-07-05T03:42:57.752Z,101275.92
2017-07-05T03:45:25.151Z,101274.76
2017-07-05T03:47:52.544Z,101265.78
2017-07-05T03:50:19.940Z,101270.37
2017-07-05T03:52:47.335Z,101272.80
2017-07-05T03:55:14.731Z,101273.91
2017-07-05T03:57:42.121Z,101266.20
2017-07-05T04:00:09.564Z,101271.62
2017-07-05T04:02:36.919Z,101273.72
2017-07-05T04:05:04.307Z,101281.00
2017-07-05T04:07:31.707Z,101283.36
2017-07-05T04:09:59.100Z,101283.19
2017-07-05T04:12:26.491Z,101287.78
2017-07-05T04:14:53.888Z,101280.55
2017-07-05T04:17:21.293Z,101278.65
2017-07-05T04:19:48.707Z,101282.94
2017-07-05T04:22:16.102Z,101283.19
2017-07-05T04:24:43.499Z,101279.02
2017-07-05T04:27:10.892Z,101280.57
2017-07-05T04:29:38.283Z,101280.60
2017-07-05T04:32:05.687Z,101282.11
2017-07-05T04:34:33.075Z,101277.87
2017-07-05T04:37:00.472Z,101268.00
2017-07-05T04:39:27.855Z,101276.20
2017-07-05T04:41:55.258Z,101283.24
2017-07-05T04:44:22.926Z,101276.92
2017-07-05T04:46:50.325Z,101283.67
2017-07-05T04:49:17.715Z,101279.41
2017-07-05T04:51:45.115Z,101278.23
2017-07-05T04:54:12.499Z,101279.49
2017-07-05T04:56:39.899Z,101276.77
2017-07-05T04:59:07.300Z,101286.92
2017-07-05T05:01:34.695Z,101285.94
2017-07-05T05:04:02.086Z,101284.33
2017-07-05T05:06:29.495Z,101282.07
2017-07-05T05:08:56.873Z,101280.17
2017-07-05T05:11:24.277Z,101291.09
2017-07-05T05:13:51.663Z,101281.25
2017-07-05T05:16:19.067Z,101291.69
2017-07-05T05:18:46.454Z,101284.22
2017-07-05T05:21:13.844Z,101283.03
2017-07-05T05:23:41.245Z,101283.09
2017-07-05T05:26:08.640Z,101281.48
2017-07-05T05:28:36.048Z,101281.20
2017-07-05T05:31:03.426Z,101279.62
2017-07-05T05:33:30.827Z,101277.02
2017-07-05T05:35:58.216Z,101288.46
2017-07-05T05:38:25.612Z,101289.06
2017-07-05T05:40:53.005Z,101282.95
2017-07-05T05:43:20.391Z,101283.00
2017-07-05T05:45:47.791Z,101281.44
2017-07-05T05:48:15.193Z,101277.34
2017-07-05T05:50:42.583Z,101271.97
2017-07-05T05:53:09.979Z,101276.28
2017-07-05T05:55:37.375Z,101275.17
2017-07-05T05:58:04.789Z,101275.73
2017-07-05T06:00:32.180Z,101280.95
2017-07-05T06:02:59.799Z,101273.84
2017-07-05T06:05:27.179Z,101279.73
2017-07-05T06:07:54.579Z,101281.80
2017-07-05T06:10:21.985Z,101286.28
2017-07-05T06:12:49.395Z,101278.83
2017-07-05T06:15:16.782Z,101272.30
2017-07-05T06:17:44.179Z,101276.68
2017-07-05T06:20:11.579Z,101281.22
2017-07-05T06:22:38.982Z,101288.05
2017-07-05T06:25:06.371Z,101285.77
2017-07-05T06:27:34.208Z,101288.89
2017-07-05T06:30:01.926Z,101284.66
2017-07-05T06:32:29.762Z,101281.41
2017-07-05T06:34:57.611Z,101274.48
2017-07-05T06:37:25.316Z,101271.36
2017-07-05T06:39:54.107Z,101273.10
2017-07-05T06:42:22.000Z,101275.55
2017-07-05T06:44:49.793Z,101275.88
2017-07-05T06:47:17.560Z,101281.79
2017-07-05T06:49:45.486Z,101286.93
2017-07-05T06:52:13.075Z,101286.48
2017-07-05T06:54:40.490Z,101286.80
2017-07-05T06:57:07.914Z,101289.61
2017-07-05T06:59:35.288Z,101288.47
2017-07-05T07:02:02.676Z,101290.52
2017-07-05T07:04:30.075Z,101296.41
2017-07-05T07:06:57.480Z,101292.53
2017-07-05T07:09:24.881Z,101294.47
2017-07-05T07:11:52.266Z,101295.19
2017-07-05T07:14:19.679Z,101295.37
2017-07-05T07:16:47.086Z,101296.39
2017-07-05T07:19:14.476Z,101300.09
2017-07-05T07:21:41.877Z,101297.87
2017-07-05T07:24:09.271Z,101300.64
2017-07-05T07:26:36.676Z,101295.11
2017-07-05T07:29:04.067Z,101295.81
2017-07-05T07:31:31.456Z,101305.86
2017-07-05T07:33:58.855Z,101305.08
2017-07-05T07:36:26.248Z,101302.22
2017-07-05T07:38:53.651Z,101303.55
2017-07-05T07:41:21.051Z,101300.44
2017-07-05T07:43:48.445Z,101300.91
2017-07-05T07:46:15.839Z,101304.79
2017-07-05T07:48:43.231Z,101309.61
2017-07-05T07:51:10.623Z,101311.02
2017-07-05T07:53:38.011Z,101313.25
2017-07-05T07:56:05.411Z,101314.84
2017-07-05T07:58:33.031Z,101319.06
2017-07-05T08:01:00.426Z,101313.31
2017-07-05T08:03:27.826Z,101315.03
2017-07-05T08:05:55.220Z,101326.11
2017-07-05T08:08:22.611Z,101313.73
2017-07-05T08:10:50.011Z,101311.75
2017-07-05T08:13:17.417Z,101312.25
2017-07-05T08:15:44.819Z,101318.63
2017-07-05T08:18:12.215Z,101312.63
2017-07-05T08:20:39.612Z,101323.91
2017-07-05T08:23:07.007Z,101325.41
2017-07-05T08:25:34.408Z,101318.83
2017-07-05T08:28:01.799Z,101323.80
2017-07-05T08:30:29.201Z,101326.40
2017-07-05T08:32:56.596Z,101326.81
2017-07-05T08:35:23.999Z,101324.52
2017-07-05T08:37:53.111Z,101332.30
2017-07-05T08:40:20.490Z,101324.66
2017-07-05T08:42:47.888Z,101325.59
2017-07-05T08:45:15.294Z,101324.39
2017-07-05T08:47:42.672Z,101330.52
2017-07-05T08:50:10.070Z,101328.61
2017-07-05T08:52:37.472Z,101326.72
2017-07-05T08:55:04.876Z,101323.12
2017-07-05T08:57:32.268Z,101330.73
2017-07-05T08:59:59.657Z,101333.98
2017-07-05T09:02:27.061Z,101335.78
2017-07-05T09:04:54.452Z,101333.52
2017-07-05T09:07:21.859Z,101334.97
2017-07-05T09:09:49.255Z,101331.70
2017-07-05T09:12:16.654Z,101330.03
2017-07-05T09:14:44.050Z,101329.47
2017-07-05T09:17:11.444Z,101328.09
2017-07-05T09:19:38.850Z,101329.03
2017-07-05T09:22:06.235Z,101328.22
2017-07-05T09:24:33.630Z,101330.46
2017-07-05T09:27:01.027Z,101327.86
2017-07-05T11:28:46.668Z,101298.47
2017-07-05T11:31:14.060Z,101299.05
2017-07-05T11:33:41.456Z,101295.65
2017-07-05T11:36:08.842Z,101298.59
2017-07-05T11:38:36.235Z,101300.16
2017-07-05T11:41:03.623Z,101299.01
2017-07-05T11:43:31.011Z,101292.33
2017-07-05T11:45:58.403Z,101291.78
2017-07-05T11:48:25.805Z,101285.20
2017-07-05T11:50:53.195Z,101282.86
2017-07-05T11:53:20.595Z,101281.31
2017-07-05T11:55:47.984Z,101279.31
2017-07-05T11:58:15.381Z,101286.69
2017-07-05T12:00:42.767Z,101273.52
2017-07-05T12:03:10.168Z,101276.30
2017-07-05T12:05:37.566Z,101273.86
2017-07-05T12:08:04.948Z,101268.06
2017-07-05T12:10:32.354Z,101267.23
2017-07-05T12:12:59.745Z,101265.30
2017-07-05T12:15:27.180Z,101267.78
2017-07-05T12:17:54.547Z,101271.73
2017-07-05T12:20:21.951Z,101272.45
2017-07-05T12:22:49.343Z,101266.94
2017-07-05T12:25:16.768Z,101270.15
2017-07-05T12:27:44.144Z,101270.11
2017-07-05T12:30:11.544Z,101265.05
2017-07-05T12:32:38.932Z,101267.33
2017-07-05T12:35:06.331Z,101269.33
2017-07-05T12:37:33.728Z,101261.13
2017-07-05T12:40:01.134Z,101264.98
2017-07-05T12:42:28.515Z,101262.45
2017-07-05T12:44:55.941Z,101263.03
2017-07-05T12:47:23.340Z,101270.17
2017-07-05T12:49:50.755Z,101257.70
2017-07-05T12:52:18.139Z,101263.25
2017-07-05T12:54:45.557Z,101255.08
2017-07-05T12:57:12.936Z,101259.15
2017-07-05T12:59:40.337Z,101257.77
2017-07-05T13:02:07.735Z,101261.45
2017-07-05T13:04:35.143Z,101255.50
2017-07-05T13:07:02.544Z,101256.29
2017-07-05T13:09:29.948Z,101259.98
2017-07-05T13:11:57.346Z,101253.70
2017-07-05T13:14:24.740Z,101257.41
2017-07-05T13:16:52.432Z,101257.50
2017-07-05T13:19:19.843Z,101253.53
2017-07-05T13:21:47.529Z,101252.19
2017-07-05T13:24:15.269Z,101249.39
2017-07-05T13:26:42.675Z,101253.28
2017-07-05T13:29:10.067Z,101256.05
2017-07-05T13:31:37.470Z,101255.78
2017-07-05T13:34:04.861Z,101256.73
2017-07-05T13:36:32.428Z,101258.30
2017-07-05T13:38:59.816Z,101261.29
2017-07-05T13:41:27.211Z,101255.11
2017-07-05T13:43:54.604Z,101254.16
2017-07-05T13:46:21.998Z,101250.24
2017-07-05T13:48:49.408Z,101245.75
2017-07-05T13:51:16.800Z,101248.56
2017-07-05T13:53:44.192Z,101251.85
2017-07-05T13:56:11.587Z,101247.92
2017-07-05T13:58:38.975Z,101240.55
2017-07-05T14:01:06.375Z,101243.02
2017-07-05T14:03:33.763Z,101240.87
2017-07-05T14:06:01.169Z,101236.34
2017-07-05T14:08:28.558Z,101234.52
2017-07-05T14:10:55.978Z,101232.28
2017-07-05T14:13:23.359Z,101238.84
2017-07-05T14:15:50.764Z,101231.27
2017-07-05T14:18:18.146Z,101241.05
2017-07-05T14:20:45.556Z,101236.30
2017-07-05T14:23:12.935Z,101234.48
2017-07-05T14:25:40.340Z,101241.06
2017-07-05T14:28:07.729Z,101240.52
2017-07-05T14:30:35.124Z,101245.28
2017-07-05T14:33:02.523Z,101244.20
2017-07-05T14:35:30.123Z,101247.60
2017-07-05T14:37:57.523Z,101240.02
2017-07-05T14:40:24.916Z,101243.80
2017-07-05T14:42:52.310Z,101243.54
2017-07-05T14:45:19.697Z,101237.48
2017-07-05T14:47:47.087Z,101241.52
2017-07-05T14:50:14.804Z,101246.59
2017-07-05T14:52:42.199Z,101237.38
2017-07-05T14:55:09.591Z,101241.61
2017-07-05T14:57:36.990Z,101242.92
2017-07-05T15:00:04.380Z,101238.28
2017-07-05T15:02:31.778Z,101236.25
2017-07-05T15:04:59.161Z,101236.41
2017-07-05T15:07:26.556Z,101236.83
2017-07-05T15:09:53.959Z,101237.43
2017-07-05T15:12:21.365Z,101237.37
2017-07-05T15:14:48.762Z,101236.34
2017-07-05T15:17:16.152Z,101239.14
2017-07-05T15:19:43.539Z,101231.33
2017-07-05T15:22:10.938Z,101235.41
2017-07-05T15:24:38.328Z,101231.23
2017-07-05T15:27:05.934Z,101236.02
2017-07-05T15:29:33.331Z,101235.86
2017-07-05T15:32:00.730Z,101238.13
2017-07-05T15:34:28.120Z,101235.92
2017-07-05T15:36:55.516Z,101230.52
2017-07-05T15:39:22.899Z,101232.29
2017-07-05T15:41:50.312Z,101224.47
2017-07-05T15:44:17.703Z,101227.75
2017-07-05T15:46:45.091Z,101234.61
2017-07-05T15:49:12.490Z,101227.84
2017-07-05T15:51:39.887Z,101226.41
2017-07-05T15:54:07.303Z,101227.14
2017-07-05T15:56:34.691Z,101229.42
2017-07-05T15:59:02.084Z,101232.12
2017-07-05T16:01:29.483Z,101236.09
2017-07-05T16:03:56.882Z,101235.52
2017-07-05T16:06:24.275Z,101231.47
2017-07-05T16:08:51.675Z,101234.24
2017-07-05T16:11:19.063Z,101235.34
2017-07-05T16:13:46.455Z,101228.66
2017-07-05T16:16:13.852Z,101227.47
2017-07-05T16:18:41.251Z,101225.79
2017-07-05T16:21:08.644Z,101220.45
2017-07-05T16:23:36.063Z,101218.33
2017-07-05T16:26:03.430Z,101214.73
2017-07-05T16:28:30.831Z,101206.30
2017-07-05T16:30:58.224Z,101201.48
2017-07-05T16:33:25.623Z,101207.68
2017-07-05T16:35:53.018Z,101206.91
2017-07-05T16:38:20.410Z,101209.39
2017-07-05T16:40:47.808Z,101207.48
2017-07-05T16:43:15.207Z,101209.06
2017-07-05T16:45:42.597Z,101206.56
2017-07-05T16:48:09.996Z,101198.88
2017-07-05T16:50:37.379Z,101200.38
2017-07-05T16:53:04.787Z,101195.98
2017-07-05T16:55:32.175Z,101205.23
2017-07-05T16:57:59.568Z,101197.98
2017-07-05T17:00:26.970Z,101204.91
2017-07-05T17:02:54.349Z,101203.31
2017-07-05T17:05:21.743Z,101202.17
2017-07-05T17:07:49.128Z,101204.03
2017-07-05T17:10:16.523Z,101202.59
2017-07-05T17:12:44.127Z,101197.20
2017-07-05T17:15:11.736Z,101192.59
2017-07-05T17:17:39.123Z,101197.94
2017-07-05T17:20:06.521Z,101202.31
2017-07-05T17:22:33.903Z,101201.99
2017-07-05T17:25:01.306Z,101193.11
2017-07-05T17:27:28.693Z,101199.80
2017-07-05T17:29:56.097Z,101196.33
2017-07-05T18:15:20.246Z,101210.81
2017-07-05T18:17:47.634Z,101217.89
2017-07-05T18:20:15.036Z,101214.51
2017-07-05T18:22:42.427Z,101212.36
2017-07-05T18:25:09.871Z,101213.53
2017-07-05T18:27:37.265Z,101209.13
2017-07-05T18:30:04.664Z,101201.79
2017-07-05T18:32:32.059Z,101206.20
2017-07-05T18:34:59.471Z,101219.47
2017-07-05T18:37:26.858Z,101218.02
2017-07-05T18:39:54.256Z,101213.44
2017-07-05T18:42:21.681Z,101208.55
2017-07-05T18:44:49.074Z,101207.97
2017-07-05T18:47:16.463Z,101205.94
2017-07-05T18:49:43.855Z,101205.18
2017-07-05T18:52:11.273Z,101202.45
2017-07-05T18:54:38.673Z,101203.00
2017-07-05T18:57:06.287Z,101215.01
2017-07-05T18:59:33.676Z,101212.59
2017-07-05T19:02:01.510Z,101217.50
2017-07-05T19:04:28.884Z,101214.62
2017-07-05T19:06:56.287Z,101210.80
2017-07-05T19:09:23.690Z,101221.93
2017-07-05T19:11:51.094Z,101219.23
2017-07-05T19:14:18.487Z,101212.39
2017-07-05T19:16:45.916Z,101207.86
2017-07-05T19:19:13.304Z,101215.03
2017-07-05T19:21:40.695Z,101209.95
2017-07-05T19:24:08.101Z,101211.39
2017-07-05T19:26:35.491Z,101217.14
2017-07-05T19:29:02.887Z,101220.17
2017-07-05T19:31:30.268Z,101220.67
2017-07-05T19:33:57.667Z,101217.46
2017-07-05T19:36:25.055Z,101226.52
2017-07-05T19:38:52.451Z,101227.02
2017-07-05T19:41:19.844Z,101228.64
2017-07-05T19:43:47.284Z,101221.64
2017-07-05T19:46:14.701Z,101227.70
2017-07-05T19:48:42.088Z,101233.34
2017-07-05T19:51:09.487Z,101237.73
2017-07-05T19:53:36.879Z,101236.89
2017-07-05T19:56:04.346Z,101232.22
2017-07-05T19:58:31.680Z,101231.78
2017-07-05T20:00:59.095Z,101241.65
2017-07-05T20:03:26.488Z,101241.08
2017-07-05T20:05:53.891Z,101239.91
2017-07-05T20:08:21.284Z,101248.25
2017-07-05T20:10:48.694Z,101248.77
2017-07-05T20:13:16.088Z,101253.23
2017-07-05T20:15:43.504Z,101251.67
2017-07-05T20:18:10.899Z,101254.55
2017-07-05T20:20:38.290Z,101262.62
2017-07-05T20:23:05.687Z,101260.52
2017-07-05T20:25:33.087Z,101267.25
2017-07-05T20:28:00.486Z,101266.98
2017-07-05T20:30:27.879Z,101274.06
2017-07-05T20:32:56.102Z,101274.77
2017-07-05T20:35:23.493Z,101277.17
2017-07-05T20:37:50.883Z,101272.12
2017-07-05T20:40:18.275Z,101275.32
2017-07-05T20:42:45.679Z,101280.72
2017-07-05T20:45:13.071Z,101279.75
2017-07-05T20:47:40.501Z,101279.33
2017-07-05T20:50:07.907Z,101273.64
2017-07-05T20:52:35.308Z,101269.39
2017-07-05T20:55:02.712Z,101278.20
2017-07-05T20:57:30.101Z,101282.66
2017-07-05T20:59:57.516Z,101277.54
2017-07-05T21:02:24.917Z,101271.46
2017-07-05T21:04:52.317Z,101277.70
2017-07-05T21:07:19.712Z,101284.92
2017-07-05T21:09:47.123Z,101285.11
2017-07-05T21:12:14.513Z,101283.34
2017-07-05T21:14:41.906Z,101288.69
2017-07-05T21:17:09.520Z,101287.81
2017-07-05T21:19:36.923Z,101284.70
2017-07-05T21:22:04.344Z,101287.71
2017-07-05T21:24:31.736Z,101287.38
2017-07-05T21:26:59.131Z,101284.36
2017-07-05T21:29:26.530Z,101287.56
2017-07-05T21:31:53.925Z,101286.40
2017-07-05T21:34:21.319Z,101289.75
2017-07-05T21:36:48.715Z,101288.91
2017-07-05T21:39:16.114Z,101279.29
2017-07-05T21:41:43.511Z,101279.59
2017-07-05T21:44:11.119Z,101280.87
2017-07-05T21:46:38.524Z,101283.87
2017-07-05T21:49:05.916Z,101286.69
2017-07-05T21:51:33.311Z,101288.33
2017-07-05T21:54:00.712Z,101283.69
2017-07-05T21:59:01.795Z,101277.89
2017-07-05T22:01:29.179Z,101279.98
2017-07-05T22:03:56.572Z,101273.63
2017-07-05T22:06:23.965Z,101284.20
2017-07-05T22:08:51.364Z,101282.78
2017-07-05T22:11:18.747Z,101280.74
2017-07-05T22:13:46.151Z,101276.80
2017-07-05T22:16:13.541Z,101282.88
2017-07-05T22:18:40.935Z,101279.15
2017-07-05T22:21:08.332Z,101283.99
2017-07-05T22:23:35.715Z,101286.66
2017-07-05T22:28:36.748Z,101289.14
2017-07-05T22:31:04.151Z,101290.51
2017-07-05T22:33:31.539Z,101289.63
2017-07-05T22:35:58.938Z,101294.09
2017-07-05T22:38:26.343Z,101296.64
2017-07-05T22:40:53.736Z,101303.83
2017-07-05T22:43:21.127Z,101293.51
2017-07-05T22:45:48.531Z,101294.33
2017-07-05T22:48:15.919Z,101294.16
2017-07-05T22:50:43.306Z,101288.05
2017-07-05T22:53:10.923Z,101288.62
2017-07-05T22:55:38.317Z,101287.46
2017-07-05T22:58:05.708Z,101285.98
2017-07-05T23:00:33.095Z,101289.20
2017-07-05T23:03:00.498Z,101291.45
2017-07-05T23:05:27.892Z,101286.34
2017-07-05T23:07:55.286Z,101290.50
2017-07-05T23:10:22.682Z,101296.84
2017-07-05T23:12:50.080Z,101291.16
2017-07-05T23:15:17.484Z,101296.28
2017-07-05T23:17:44.880Z,101295.86
2017-07-05T23:20:12.279Z,101291.09
2017-07-05T23:22:39.682Z,101294.82
2017-07-05T23:25:07.114Z,101290.59
2017-07-05T23:27:34.508Z,101297.48
2017-07-05T23:30:01.906Z,101300.34
2017-07-05T23:32:29.349Z,101301.72
2017-07-05T23:34:56.712Z,101309.36
2017-07-05T23:37:24.102Z,101302.44
2017-07-05T23:39:51.656Z,101309.50
2017-07-05T23:42:19.067Z,101309.19
2017-07-05T23:44:46.453Z,101302.91
2017-07-05T23:47:13.847Z,101299.52
2017-07-05T23:49:41.245Z,101299.91
2017-07-05T23:52:08.637Z,101296.95
2017-07-05T23:54:36.027Z,101303.42
2017-07-05T23:57:03.423Z,101305.69
2017-07-05T23:59:30.814Z,101297.49
